sensor_id;sensor_type;location;lat;lon;timestamp;P1;durP1;ratioP1;P2;durP2;ratioP2
18100;SDS011;9177;49.156;8.142;2023-08-12T00:01:06;2.80;;;2.30;;
18100;SDS011;9177;49.156;8.142;2023-08-12T00:03:33;2.80;;;2.60;;
18100;SDS011;9177;49.156;8.142;2023-08-12T00:06:00;4.15;;;2.45;;
18100;SDS011;9177;49.156;8.142;2023-08-12T00:08:30;2.65;;;2.45;;
18100;SDS011;9177;49.156;8.142;2023-08-12T00:10:57;2.67;;;2.47;;
18100;SDS011;9177;49.156;8.142;2023-08-12T00:13:24;3.17;;;2.88;;
18100;SDS011;9177;49.156;8.142;2023-08-12T00:15:51;3.60;;;2.05;;
18100;SDS011;9177;49.156;8.142;2023-08-12T00:18:19;2.70;;;2.47;;
18100;SDS011;9177;49.156;8.142;2023-08-12T00:20:47;2.67;;;2.47;;
18100;SDS011;9177;49.156;8.142;2023-08-12T00:23:13;3.95;;;2.60;;
18100;SDS011;9177;49.156;8.142;2023-08-12T00:25:40;2.40;;;2.22;;
18100;SDS011;9177;49.156;8.142;2023-08-12T00:28:07;3.10;;;2.60;;
18100;SDS011;9177;49.156;8.142;2023-08-12T00:30:35;3.25;;;2.45;;
18100;SDS011;9177;49.156;8.142;2023-08-12T00:33:02;4.35;;;2.47;;
18100;SDS011;9177;49.156;8.142;2023-08-12T00:35:30;2.50;;;2.30;;
18100;SDS011;9177;49.156;8.142;2023-08-12T00:37:57;2.45;;;2.25;;
18100;SDS011;9177;49.156;8.142;2023-08-12T00:40:25;3.20;;;2.55;;
18100;SDS011;9177;49.156;8.142;2023-08-12T00:42:52;2.40;;;2.20;;
18100;SDS011;9177;49.156;8.142;2023-08-12T00:45:19;2.47;;;2.28;;
18100;SDS011;9177;49.156;8.142;2023-08-12T00:47:46;2.65;;;2.45;;
18100;SDS011;9177;49.156;8.142;2023-08-12T00:50:13;2.67;;;2.47;;
18100;SDS011;9177;49.156;8.142;2023-08-12T00:52:42;2.92;;;2.40;;
18100;SDS011;9177;49.156;8.142;2023-08-12T00:55:09;2.72;;;2.42;;
18100;SDS011;9177;49.156;8.142;2023-08-12T00:57:36;3.45;;;2.15;;
18100;SDS011;9177;49.156;8.142;2023-08-12T01:00:04;2.38;;;2.17;;
18100;SDS011;9177;49.156;8.142;2023-08-12T01:02:31;2.78;;;2.42;;
18100;SDS011;9177;49.156;8.142;2023-08-12T01:05:01;2.75;;;2.30;;
18100;SDS011;9177;49.156;8.142;2023-08-12T01:07:29;2.53;;;2.33;;
18100;SDS011;9177;49.156;8.142;2023-08-12T01:09:57;2.53;;;2.33;;
18100;SDS011;9177;49.156;8.142;2023-08-12T01:12:25;2.58;;;2.33;;
18100;SDS011;9177;49.156;8.142;2023-08-12T01:14:59;2.38;;;2.17;;
18100;SDS011;9177;49.156;8.142;2023-08-12T01:17:32;3.22;;;2.22;;
18100;SDS011;9177;49.156;8.142;2023-08-12T01:20:02;2.78;;;2.58;;
18100;SDS011;9177;49.156;8.142;2023-08-12T01:22:33;2.55;;;2.35;;
18100;SDS011;9177;49.156;8.142;2023-08-12T01:25:06;2.50;;;2.30;;
18100;SDS011;9177;49.156;8.142;2023-08-12T01:27:34;2.47;;;2.28;;
18100;SDS011;9177;49.156;8.142;2023-08-12T01:30:02;2.50;;;2.30;;
18100;SDS011;9177;49.156;8.142;2023-08-12T01:32:32;2.50;;;2.30;;
18100;SDS011;9177;49.156;8.142;2023-08-12T01:35:06;2.17;;;2.00;;
18100;SDS011;9177;49.156;8.142;2023-08-12T01:37:37;2.72;;;2.53;;
18100;SDS011;9177;49.156;8.142;2023-08-12T01:40:07;2.38;;;2.17;;
18100;SDS011;9177;49.156;8.142;2023-08-12T01:42:37;2.65;;;2.45;;
18100;SDS011;9177;49.156;8.142;2023-08-12T01:45:07;3.63;;;2.53;;
18100;SDS011;9177;49.156;8.142;2023-08-12T01:47:34;2.50;;;2.30;;
18100;SDS011;9177;49.156;8.142;2023-08-12T01:50:01;2.72;;;2.53;;
18100;SDS011;9177;49.156;8.142;2023-08-12T01:52:28;2.63;;;2.42;;
18100;SDS011;9177;49.156;8.142;2023-08-12T01:54:55;2.50;;;2.30;;
18100;SDS011;9177;49.156;8.142;2023-08-12T01:57:23;2.63;;;2.42;;
18100;SDS011;9177;49.156;8.142;2023-08-12T01:59:51;2.20;;;2.00;;
18100;SDS011;9177;49.156;8.142;2023-08-12T02:02:17;2.60;;;2.40;;
18100;SDS011;9177;49.156;8.142;2023-08-12T02:04:45;2.00;;;1.90;;
18100;SDS011;9177;49.156;8.142;2023-08-12T02:07:12;2.00;;;1.73;;
18100;SDS011;9177;49.156;8.142;2023-08-12T02:09:39;2.17;;;2.08;;
18100;SDS011;9177;49.156;8.142;2023-08-12T02:12:06;2.47;;;2.28;;
18100;SDS011;9177;49.156;8.142;2023-08-12T02:14:35;2.15;;;2.05;;
18100;SDS011;9177;49.156;8.142;2023-08-12T02:17:02;2.10;;;2.00;;
18100;SDS011;9177;49.156;8.142;2023-08-12T02:19:31;2.40;;;2.30;;
18100;SDS011;9177;49.156;8.142;2023-08-12T02:21:58;3.03;;;2.72;;
18100;SDS011;9177;49.156;8.142;2023-08-12T02:24:25;2.38;;;2.15;;
18100;SDS011;9177;49.156;8.142;2023-08-12T02:26:52;2.50;;;2.30;;
18100;SDS011;9177;49.156;8.142;2023-08-12T02:29:19;2.38;;;2.20;;
18100;SDS011;9177;49.156;8.142;2023-08-12T02:31:47;2.65;;;2.28;;
18100;SDS011;9177;49.156;8.142;2023-08-12T02:34:14;2.15;;;2.05;;
18100;SDS011;9177;49.156;8.142;2023-08-12T02:36:41;2.42;;;2.22;;
18100;SDS011;9177;49.156;8.142;2023-08-12T02:39:08;2.30;;;2.10;;
18100;SDS011;9177;49.156;8.142;2023-08-12T02:41:34;3.53;;;2.30;;
18100;SDS011;9177;49.156;8.142;2023-08-12T02:44:01;2.45;;;2.25;;
18100;SDS011;9177;49.156;8.142;2023-08-12T02:46:28;2.63;;;2.42;;
18100;SDS011;9177;49.156;8.142;2023-08-12T02:48:57;3.03;;;2.20;;
18100;SDS011;9177;49.156;8.142;2023-08-12T02:51:23;2.28;;;2.08;;
18100;SDS011;9177;49.156;8.142;2023-08-12T02:53:50;2.45;;;2.13;;
18100;SDS011;9177;49.156;8.142;2023-08-12T02:56:17;2.20;;;2.08;;
18100;SDS011;9177;49.156;8.142;2023-08-12T02:58:44;2.22;;;2.10;;
18100;SDS011;9177;49.156;8.142;2023-08-12T03:01:12;2.72;;;2.53;;
18100;SDS011;9177;49.156;8.142;2023-08-12T03:03:39;2.47;;;2.28;;
18100;SDS011;9177;49.156;8.142;2023-08-12T03:06:08;2.08;;;1.90;;
18100;SDS011;9177;49.156;8.142;2023-08-12T03:08:35;2.45;;;2.25;;
18100;SDS011;9177;49.156;8.142;2023-08-12T03:11:02;1.90;;;1.80;;
18100;SDS011;9177;49.156;8.142;2023-08-12T03:13:29;2.42;;;2.22;;
18100;SDS011;9177;49.156;8.142;2023-08-12T03:15:56;2.05;;;1.95;;
18100;SDS011;9177;49.156;8.142;2023-08-12T03:18:23;2.35;;;2.15;;
18100;SDS011;9177;49.156;8.142;2023-08-12T03:20:50;2.10;;;2.00;;
18100;SDS011;9177;49.156;8.142;2023-08-12T03:23:18;2.63;;;2.28;;
18100;SDS011;9177;49.156;8.142;2023-08-12T03:25:46;2.40;;;2.20;;
18100;SDS011;9177;49.156;8.142;2023-08-12T03:28:13;2.42;;;2.22;;
18100;SDS011;9177;49.156;8.142;2023-08-12T03:30:39;2.30;;;2.10;;
18100;SDS011;9177;49.156;8.142;2023-08-12T03:33:06;2.10;;;2.00;;
18100;SDS011;9177;49.156;8.142;2023-08-12T03:35:33;2.47;;;2.28;;
18100;SDS011;9177;49.156;8.142;2023-08-12T03:38:00;2.00;;;1.90;;
18100;SDS011;9177;49.156;8.142;2023-08-12T03:40:28;1.92;;;1.83;;
18100;SDS011;9177;49.156;8.142;2023-08-12T03:42:55;2.67;;;2.10;;
18100;SDS011;9177;49.156;8.142;2023-08-12T03:45:22;2.45;;;2.25;;
18100;SDS011;9177;49.156;8.142;2023-08-12T03:47:49;2.17;;;2.03;;
18100;SDS011;9177;49.156;8.142;2023-08-12T03:50:15;2.47;;;2.28;;
18100;SDS011;9177;49.156;8.142;2023-08-12T03:52:42;2.28;;;2.08;;
18100;SDS011;9177;49.156;8.142;2023-08-12T03:55:09;2.30;;;2.10;;
18100;SDS011;9177;49.156;8.142;2023-08-12T03:57:38;2.35;;;2.15;;
18100;SDS011;9177;49.156;8.142;2023-08-12T04:00:05;2.50;;;2.30;;
18100;SDS011;9177;49.156;8.142;2023-08-12T04:02:33;2.25;;;2.10;;
18100;SDS011;9177;49.156;8.142;2023-08-12T04:05:01;1.90;;;1.80;;
18100;SDS011;9177;49.156;8.142;2023-08-12T04:07:28;2.95;;;2.03;;
18100;SDS011;9177;49.156;8.142;2023-08-12T04:09:55;2.45;;;2.25;;
18100;SDS011;9177;49.156;8.142;2023-08-12T04:12:21;2.33;;;2.10;;
18100;SDS011;9177;49.156;8.142;2023-08-12T04:14:50;2.05;;;1.85;;
18100;SDS011;9177;49.156;8.142;2023-08-12T04:17:16;2.40;;;2.20;;
18100;SDS011;9177;49.156;8.142;2023-08-12T04:19:43;2.10;;;2.00;;
18100;SDS011;9177;49.156;8.142;2023-08-12T04:22:10;2.83;;;2.30;;
18100;SDS011;9177;49.156;8.142;2023-08-12T04:24:37;2.05;;;1.95;;
18100;SDS011;9177;49.156;8.142;2023-08-12T04:27:03;2.05;;;1.95;;
18100;SDS011;9177;49.156;8.142;2023-08-12T04:29:30;2.22;;;1.92;;
18100;SDS011;9177;49.156;8.142;2023-08-12T04:31:59;2.13;;;2.03;;
18100;SDS011;9177;49.156;8.142;2023-08-12T04:34:25;2.42;;;2.22;;
18100;SDS011;9177;49.156;8.142;2023-08-12T04:36:52;2.30;;;2.00;;
18100;SDS011;9177;49.156;8.142;2023-08-12T04:39:22;2.20;;;2.00;;
18100;SDS011;9177;49.156;8.142;2023-08-12T04:41:50;2.13;;;2.00;;
18100;SDS011;9177;49.156;8.142;2023-08-12T04:44:17;2.45;;;1.92;;
18100;SDS011;9177;49.156;8.142;2023-08-12T04:46:43;1.90;;;1.80;;
18100;SDS011;9177;49.156;8.142;2023-08-12T04:49:12;2.03;;;1.88;;
18100;SDS011;9177;49.156;8.142;2023-08-12T04:51:39;1.80;;;1.70;;
18100;SDS011;9177;49.156;8.142;2023-08-12T04:54:05;2.58;;;1.98;;
18100;SDS011;9177;49.156;8.142;2023-08-12T04:56:33;2.00;;;1.90;;
18100;SDS011;9177;49.156;8.142;2023-08-12T04:59:00;2.38;;;2.17;;
18100;SDS011;9177;49.156;8.142;2023-08-12T05:01:27;2.42;;;2.22;;
18100;SDS011;9177;49.156;8.142;2023-08-12T05:03:53;1.88;;;1.77;;
18100;SDS011;9177;49.156;8.142;2023-08-12T05:06:21;1.90;;;1.80;;
18100;SDS011;9177;49.156;8.142;2023-08-12T05:08:49;1.90;;;1.80;;
18100;SDS011;9177;49.156;8.142;2023-08-12T05:11:16;2.50;;;2.30;;
18100;SDS011;9177;49.156;8.142;2023-08-12T05:13:43;1.80;;;1.63;;
18100;SDS011;9177;49.156;8.142;2023-08-12T05:16:10;2.08;;;1.95;;
18100;SDS011;9177;49.156;8.142;2023-08-12T05:18:37;2.03;;;1.85;;
18100;SDS011;9177;49.156;8.142;2023-08-12T05:21:04;2.17;;;2.00;;
18100;SDS011;9177;49.156;8.142;2023-08-12T05:23:32;2.35;;;2.15;;
18100;SDS011;9177;49.156;8.142;2023-08-12T05:25:58;2.22;;;1.90;;
18100;SDS011;9177;49.156;8.142;2023-08-12T05:28:25;2.30;;;2.10;;
18100;SDS011;9177;49.156;8.142;2023-08-12T05:30:52;2.05;;;1.95;;
18100;SDS011;9177;49.156;8.142;2023-08-12T05:33:20;2.42;;;2.22;;
18100;SDS011;9177;49.156;8.142;2023-08-12T05:35:47;2.22;;;2.10;;
18100;SDS011;9177;49.156;8.142;2023-08-12T05:38:14;2.10;;;1.90;;
18100;SDS011;9177;49.156;8.142;2023-08-12T05:40:42;2.25;;;2.05;;
18100;SDS011;9177;49.156;8.142;2023-08-12T05:43:09;2.38;;;2.17;;
18100;SDS011;9177;49.156;8.142;2023-08-12T05:45:36;2.30;;;2.10;;
18100;SDS011;9177;49.156;8.142;2023-08-12T05:48:04;2.08;;;1.90;;
18100;SDS011;9177;49.156;8.142;2023-08-12T05:50:31;2.40;;;2.20;;
18100;SDS011;9177;49.156;8.142;2023-08-12T05:52:58;2.08;;;1.98;;
18100;SDS011;9177;49.156;8.142;2023-08-12T05:55:25;2.20;;;2.10;;
18100;SDS011;9177;49.156;8.142;2023-08-12T05:57:53;2.30;;;2.10;;
18100;SDS011;9177;49.156;8.142;2023-08-12T06:00:20;2.15;;;1.90;;
18100;SDS011;9177;49.156;8.142;2023-08-12T06:02:47;3.30;;;2.13;;
18100;SDS011;9177;49.156;8.142;2023-08-12T06:05:14;2.25;;;2.05;;
18100;SDS011;9177;49.156;8.142;2023-08-12T06:07:41;2.08;;;1.98;;
18100;SDS011;9177;49.156;8.142;2023-08-12T06:10:08;2.17;;;2.08;;
18100;SDS011;9177;49.156;8.142;2023-08-12T06:12:35;2.05;;;1.85;;
18100;SDS011;9177;49.156;8.142;2023-08-12T06:15:04;2.30;;;2.10;;
18100;SDS011;9177;49.156;8.142;2023-08-12T06:17:31;2.33;;;2.13;;
18100;SDS011;9177;49.156;8.142;2023-08-12T06:19:58;1.70;;;1.60;;
18100;SDS011;9177;49.156;8.142;2023-08-12T06:22:25;2.28;;;2.08;;
18100;SDS011;9177;49.156;8.142;2023-08-12T06:24:52;2.10;;;1.90;;
18100;SDS011;9177;49.156;8.142;2023-08-12T06:27:18;2.05;;;1.80;;
18100;SDS011;9177;49.156;8.142;2023-08-12T06:29:46;2.25;;;2.05;;
18100;SDS011;9177;49.156;8.142;2023-08-12T06:32:14;1.88;;;1.73;;
18100;SDS011;9177;49.156;8.142;2023-08-12T06:34:41;2.25;;;2.10;;
18100;SDS011;9177;49.156;8.142;2023-08-12T06:37:08;1.92;;;1.75;;
18100;SDS011;9177;49.156;8.142;2023-08-12T06:39:35;2.10;;;2.00;;
18100;SDS011;9177;49.156;8.142;2023-08-12T06:42:02;2.05;;;1.80;;
18100;SDS011;9177;49.156;8.142;2023-08-12T06:44:29;2.50;;;2.30;;
18100;SDS011;9177;49.156;8.142;2023-08-12T06:46:56;2.45;;;2.25;;
18100;SDS011;9177;49.156;8.142;2023-08-12T06:49:25;1.98;;;1.88;;
18100;SDS011;9177;49.156;8.142;2023-08-12T06:51:51;1.95;;;1.85;;
18100;SDS011;9177;49.156;8.142;2023-08-12T06:54:18;2.10;;;1.90;;
18100;SDS011;9177;49.156;8.142;2023-08-12T06:56:48;2.20;;;2.00;;
18100;SDS011;9177;49.156;8.142;2023-08-12T06:59:15;2.00;;;1.90;;
18100;SDS011;9177;49.156;8.142;2023-08-12T07:01:42;1.98;;;1.77;;
18100;SDS011;9177;49.156;8.142;2023-08-12T07:04:09;2.00;;;1.90;;
18100;SDS011;9177;49.156;8.142;2023-08-12T07:06:37;1.83;;;1.73;;
18100;SDS011;9177;49.156;8.142;2023-08-12T07:09:05;1.90;;;1.80;;
18100;SDS011;9177;49.156;8.142;2023-08-12T07:11:32;2.10;;;1.90;;
18100;SDS011;9177;49.156;8.142;2023-08-12T07:14:01;2.15;;;2.05;;
18100;SDS011;9177;49.156;8.142;2023-08-12T07:16:29;1.90;;;1.80;;
18100;SDS011;9177;49.156;8.142;2023-08-12T07:18:55;2.05;;;1.95;;
18100;SDS011;9177;49.156;8.142;2023-08-12T07:21:22;2.15;;;2.05;;
18100;SDS011;9177;49.156;8.142;2023-08-12T07:23:51;1.88;;;1.77;;
18100;SDS011;9177;49.156;8.142;2023-08-12T07:26:18;2.00;;;1.90;;
18100;SDS011;9177;49.156;8.142;2023-08-12T07:28:45;1.95;;;1.85;;
18100;SDS011;9177;49.156;8.142;2023-08-12T07:31:13;1.77;;;1.67;;
18100;SDS011;9177;49.156;8.142;2023-08-12T07:33:40;1.88;;;1.77;;
18100;SDS011;9177;49.156;8.142;2023-08-12T07:36:06;1.92;;;1.83;;
18100;SDS011;9177;49.156;8.142;2023-08-12T07:38:34;1.75;;;1.65;;
18100;SDS011;9177;49.156;8.142;2023-08-12T07:41:03;1.80;;;1.70;;
18100;SDS011;9177;49.156;8.142;2023-08-12T07:43:30;2.38;;;2.17;;
18100;SDS011;9177;49.156;8.142;2023-08-12T07:45:57;1.70;;;1.60;;
18100;SDS011;9177;49.156;8.142;2023-08-12T07:48:24;2.22;;;2.10;;
18100;SDS011;9177;49.156;8.142;2023-08-12T07:50:54;2.15;;;1.95;;
18100;SDS011;9177;49.156;8.142;2023-08-12T07:53:22;2.20;;;2.00;;
18100;SDS011;9177;49.156;8.142;2023-08-12T07:55:52;2.00;;;1.90;;
18100;SDS011;9177;49.156;8.142;2023-08-12T07:58:20;1.60;;;1.50;;
18100;SDS011;9177;49.156;8.142;2023-08-12T08:00:47;2.00;;;1.90;;
18100;SDS011;9177;49.156;8.142;2023-08-12T08:03:14;1.90;;;1.80;;
18100;SDS011;9177;49.156;8.142;2023-08-12T08:05:41;2.42;;;2.05;;
18100;SDS011;9177;49.156;8.142;2023-08-12T08:08:10;2.13;;;2.03;;
18100;SDS011;9177;49.156;8.142;2023-08-12T08:10:37;1.98;;;1.88;;
18100;SDS011;9177;49.156;8.142;2023-08-12T08:13:04;1.77;;;1.67;;
18100;SDS011;9177;49.156;8.142;2023-08-12T08:15:33;2.00;;;1.90;;
18100;SDS011;9177;49.156;8.142;2023-08-12T08:18:00;1.95;;;1.80;;
18100;SDS011;9177;49.156;8.142;2023-08-12T08:20:29;2.25;;;2.05;;
18100;SDS011;9177;49.156;8.142;2023-08-12T08:22:56;2.00;;;1.90;;
18100;SDS011;9177;49.156;8.142;2023-08-12T08:25:23;1.70;;;1.60;;
18100;SDS011;9177;49.156;8.142;2023-08-12T08:27:51;1.80;;;1.70;;
18100;SDS011;9177;49.156;8.142;2023-08-12T08:30:18;2.58;;;1.85;;
18100;SDS011;9177;49.156;8.142;2023-08-12T08:32:49;2.08;;;1.98;;
18100;SDS011;9177;49.156;8.142;2023-08-12T08:35:16;1.73;;;1.63;;
18100;SDS011;9177;49.156;8.142;2023-08-12T08:37:43;1.67;;;1.58;;
18100;SDS011;9177;49.156;8.142;2023-08-12T08:40:10;1.58;;;1.48;;
18100;SDS011;9177;49.156;8.142;2023-08-12T08:42:37;1.50;;;1.40;;
18100;SDS011;9177;49.156;8.142;2023-08-12T08:45:06;1.85;;;1.75;;
18100;SDS011;9177;49.156;8.142;2023-08-12T08:47:39;1.90;;;1.80;;
18100;SDS011;9177;49.156;8.142;2023-08-12T08:50:08;1.92;;;1.83;;
18100;SDS011;9177;49.156;8.142;2023-08-12T08:52:37;1.90;;;1.80;;
18100;SDS011;9177;49.156;8.142;2023-08-12T08:55:04;1.90;;;1.80;;
18100;SDS011;9177;49.156;8.142;2023-08-12T08:57:31;2.85;;;1.67;;
18100;SDS011;9177;49.156;8.142;2023-08-12T08:59:58;1.98;;;1.80;;
18100;SDS011;9177;49.156;8.142;2023-08-12T09:02:26;1.80;;;1.60;;
18100;SDS011;9177;49.156;8.142;2023-08-12T09:04:53;1.70;;;1.60;;
18100;SDS011;9177;49.156;8.142;2023-08-12T09:07:25;1.83;;;1.73;;
18100;SDS011;9177;49.156;8.142;2023-08-12T09:09:52;2.17;;;1.98;;
18100;SDS011;9177;49.156;8.142;2023-08-12T09:12:20;1.83;;;1.73;;
18100;SDS011;9177;49.156;8.142;2023-08-12T09:14:49;1.90;;;1.80;;
18100;SDS011;9177;49.156;8.142;2023-08-12T09:17:15;1.90;;;1.80;;
18100;SDS011;9177;49.156;8.142;2023-08-12T09:19:42;1.65;;;1.55;;
18100;SDS011;9177;49.156;8.142;2023-08-12T09:22:09;1.95;;;1.83;;
18100;SDS011;9177;49.156;8.142;2023-08-12T09:24:38;1.92;;;1.83;;
18100;SDS011;9177;49.156;8.142;2023-08-12T09:27:05;1.90;;;1.80;;
18100;SDS011;9177;49.156;8.142;2023-08-12T09:29:33;1.90;;;1.80;;
18100;SDS011;9177;49.156;8.142;2023-08-12T09:32:09;1.90;;;1.80;;
18100;SDS011;9177;49.156;8.142;2023-08-12T09:34:37;1.75;;;1.65;;
18100;SDS011;9177;49.156;8.142;2023-08-12T09:37:04;1.90;;;1.80;;
18100;SDS011;9177;49.156;8.142;2023-08-12T09:39:31;1.80;;;1.70;;
18100;SDS011;9177;49.156;8.142;2023-08-12T09:42:00;1.80;;;1.70;;
18100;SDS011;9177;49.156;8.142;2023-08-12T09:44:28;1.70;;;1.60;;
18100;SDS011;9177;49.156;8.142;2023-08-12T09:47:00;1.90;;;1.80;;
18100;SDS011;9177;49.156;8.142;2023-08-12T09:49:28;1.65;;;1.55;;
18100;SDS011;9177;49.156;8.142;2023-08-12T09:51:55;2.58;;;1.80;;
18100;SDS011;9177;49.156;8.142;2023-08-12T09:54:25;1.95;;;1.85;;
18100;SDS011;9177;49.156;8.142;2023-08-12T09:56:54;1.90;;;1.80;;
18100;SDS011;9177;49.156;8.142;2023-08-12T09:59:27;2.13;;;1.92;;
18100;SDS011;9177;49.156;8.142;2023-08-12T10:01:56;1.55;;;1.45;;
18100;SDS011;9177;49.156;8.142;2023-08-12T10:04:26;1.60;;;1.50;;
18100;SDS011;9177;49.156;8.142;2023-08-12T10:06:56;1.83;;;1.73;;
18100;SDS011;9177;49.156;8.142;2023-08-12T10:09:24;1.80;;;1.70;;
18100;SDS011;9177;49.156;8.142;2023-08-12T10:11:52;1.85;;;1.75;;
18100;SDS011;9177;49.156;8.142;2023-08-12T10:14:19;2.25;;;2.00;;
18100;SDS011;9177;49.156;8.142;2023-08-12T10:16:50;2.03;;;1.92;;
18100;SDS011;9177;49.156;8.142;2023-08-12T10:19:20;1.80;;;1.70;;
18100;SDS011;9177;49.156;8.142;2023-08-12T10:21:50;2.00;;;1.80;;
18100;SDS011;9177;49.156;8.142;2023-08-12T10:24:23;1.90;;;1.80;;
18100;SDS011;9177;49.156;8.142;2023-08-12T10:26:52;1.92;;;1.75;;
18100;SDS011;9177;49.156;8.142;2023-08-12T10:29:19;1.90;;;1.80;;
18100;SDS011;9177;49.156;8.142;2023-08-12T10:31:46;1.90;;;1.80;;
18100;SDS011;9177;49.156;8.142;2023-08-12T10:34:19;1.80;;;1.70;;
18100;SDS011;9177;49.156;8.142;2023-08-12T10:36:47;2.00;;;1.90;;
18100;SDS011;9177;49.156;8.142;2023-08-12T10:39:15;1.65;;;1.55;;
18100;SDS011;9177;49.156;8.142;2023-08-12T10:41:49;1.98;;;1.80;;
18100;SDS011;9177;49.156;8.142;2023-08-12T10:44:19;1.80;;;1.70;;
18100;SDS011;9177;49.156;8.142;2023-08-12T10:46:51;1.83;;;1.73;;
18100;SDS011;9177;49.156;8.142;2023-08-12T10:49:21;2.50;;;1.73;;
18100;SDS011;9177;49.156;8.142;2023-08-12T10:51:49;3.58;;;2.00;;
18100;SDS011;9177;49.156;8.142;2023-08-12T10:54:18;2.13;;;2.00;;
18100;SDS011;9177;49.156;8.142;2023-08-12T10:57:06;1.85;;;1.75;;
18100;SDS011;9177;49.156;8.142;2023-08-12T10:59:49;2.63;;;1.90;;
18100;SDS011;9177;49.156;8.142;2023-08-12T11:02:18;2.40;;;2.00;;
18100;SDS011;9177;49.156;8.142;2023-08-12T11:04:52;2.22;;;2.00;;
18100;SDS011;9177;49.156;8.142;2023-08-12T11:07:21;4.78;;;2.20;;
18100;SDS011;9177;49.156;8.142;2023-08-12T11:09:53;2.80;;;2.15;;
18100;SDS011;9177;49.156;8.142;2023-08-12T11:12:29;5.63;;;2.67;;
18100;SDS011;9177;49.156;8.142;2023-08-12T11:14:57;3.78;;;2.72;;
18100;SDS011;9177;49.156;8.142;2023-08-12T11:17:29;4.57;;;2.80;;
18100;SDS011;9177;49.156;8.142;2023-08-12T11:20:03;3.50;;;2.40;;
18100;SDS011;9177;49.156;8.142;2023-08-12T11:22:32;3.63;;;2.67;;
18100;SDS011;9177;49.156;8.142;2023-08-12T11:25:02;4.15;;;2.10;;
18100;SDS011;9177;49.156;8.142;2023-08-12T11:27:35;3.58;;;2.42;;
18100;SDS011;9177;49.156;8.142;2023-08-12T11:30:07;3.30;;;2.45;;
18100;SDS011;9177;49.156;8.142;2023-08-12T11:32:36;8.63;;;6.40;;
18100;SDS011;9177;49.156;8.142;2023-08-12T11:35:06;10.48;;;9.05;;
18100;SDS011;9177;49.156;8.142;2023-08-12T11:37:36;7.57;;;3.97;;
18100;SDS011;9177;49.156;8.142;2023-08-12T11:40:03;8.70;;;3.15;;
18100;SDS011;9177;49.156;8.142;2023-08-12T11:42:34;3.95;;;3.10;;
18100;SDS011;9177;49.156;8.142;2023-08-12T11:45:01;9.32;;;4.38;;
18100;SDS011;9177;49.156;8.142;2023-08-12T11:47:28;6.53;;;3.83;;
18100;SDS011;9177;49.156;8.142;2023-08-12T11:49:55;8.77;;;5.60;;
18100;SDS011;9177;49.156;8.142;2023-08-12T11:52:24;4.80;;;3.90;;
18100;SDS011;9177;49.156;8.142;2023-08-12T11:54:52;7.20;;;3.28;;
18100;SDS011;9177;49.156;8.142;2023-08-12T11:57:21;5.70;;;3.42;;
18100;SDS011;9177;49.156;8.142;2023-08-12T11:59:49;5.05;;;3.40;;
18100;SDS011;9177;49.156;8.142;2023-08-12T12:02:16;4.57;;;3.28;;
18100;SDS011;9177;49.156;8.142;2023-08-12T12:04:45;7.57;;;3.70;;
18100;SDS011;9177;49.156;8.142;2023-08-12T12:07:18;5.35;;;2.95;;
18100;SDS011;9177;49.156;8.142;2023-08-12T12:09:49;4.95;;;2.92;;
18100;SDS011;9177;49.156;8.142;2023-08-12T12:12:17;4.57;;;3.00;;
18100;SDS011;9177;49.156;8.142;2023-08-12T12:14:46;7.18;;;3.00;;
18100;SDS011;9177;49.156;8.142;2023-08-12T12:17:14;5.55;;;3.08;;
18100;SDS011;9177;49.156;8.142;2023-08-12T12:19:41;7.60;;;2.80;;
18100;SDS011;9177;49.156;8.142;2023-08-12T12:22:09;10.60;;;4.00;;
18100;SDS011;9177;49.156;8.142;2023-08-12T12:24:45;11.07;;;3.03;;
18100;SDS011;9177;49.156;8.142;2023-08-12T12:27:15;8.57;;;3.80;;
18100;SDS011;9177;49.156;8.142;2023-08-12T12:29:42;15.00;;;3.58;;
18100;SDS011;9177;49.156;8.142;2023-08-12T12:32:09;12.55;;;3.58;;
18100;SDS011;9177;49.156;8.142;2023-08-12T12:34:37;9.63;;;3.47;;
18100;SDS011;9177;49.156;8.142;2023-08-12T12:37:05;11.85;;;3.47;;
18100;SDS011;9177;49.156;8.142;2023-08-12T12:39:32;17.33;;;3.63;;
18100;SDS011;9177;49.156;8.142;2023-08-12T12:42:01;12.65;;;3.75;;
18100;SDS011;9177;49.156;8.142;2023-08-12T12:44:28;14.90;;;3.78;;
18100;SDS011;9177;49.156;8.142;2023-08-12T12:46:55;11.20;;;3.90;;
18100;SDS011;9177;49.156;8.142;2023-08-12T12:49:22;29.52;;;4.78;;
18100;SDS011;9177;49.156;8.142;2023-08-12T12:51:50;18.25;;;3.97;;
18100;SDS011;9177;49.156;8.142;2023-08-12T12:54:17;19.10;;;4.78;;
18100;SDS011;9177;49.156;8.142;2023-08-12T12:56:50;14.10;;;4.03;;
18100;SDS011;9177;49.156;8.142;2023-08-12T12:59:18;13.35;;;3.97;;
18100;SDS011;9177;49.156;8.142;2023-08-12T13:01:46;21.80;;;5.22;;
18100;SDS011;9177;49.156;8.142;2023-08-12T13:04:13;19.45;;;4.90;;
18100;SDS011;9177;49.156;8.142;2023-08-12T13:06:40;20.38;;;5.10;;
18100;SDS011;9177;49.156;8.142;2023-08-12T13:09:07;21.58;;;6.03;;
18100;SDS011;9177;49.156;8.142;2023-08-12T13:11:34;15.65;;;5.30;;
18100;SDS011;9177;49.156;8.142;2023-08-12T13:14:02;15.00;;;5.18;;
18100;SDS011;9177;49.156;8.142;2023-08-12T13:16:31;12.10;;;4.90;;
18100;SDS011;9177;49.156;8.142;2023-08-12T13:18:58;19.05;;;5.65;;
18100;SDS011;9177;49.156;8.142;2023-08-12T13:21:25;22.40;;;5.65;;
18100;SDS011;9177;49.156;8.142;2023-08-12T13:23:53;22.60;;;5.55;;
18100;SDS011;9177;49.156;8.142;2023-08-12T13:26:20;18.55;;;4.50;;
18100;SDS011;9177;49.156;8.142;2023-08-12T13:28:48;15.05;;;4.80;;
18100;SDS011;9177;49.156;8.142;2023-08-12T13:31:15;18.50;;;5.35;;
18100;SDS011;9177;49.156;8.142;2023-08-12T13:33:43;14.00;;;4.68;;
18100;SDS011;9177;49.156;8.142;2023-08-12T13:36:11;28.20;;;11.02;;
18100;SDS011;9177;49.156;8.142;2023-08-12T13:38:38;14.18;;;5.82;;
18100;SDS011;9177;49.156;8.142;2023-08-12T13:41:05;14.75;;;5.40;;
18100;SDS011;9177;49.156;8.142;2023-08-12T13:43:32;24.05;;;6.18;;
18100;SDS011;9177;49.156;8.142;2023-08-12T13:46:00;21.05;;;5.80;;
18100;SDS011;9177;49.156;8.142;2023-08-12T13:48:27;20.70;;;5.38;;
18100;SDS011;9177;49.156;8.142;2023-08-12T13:50:56;17.98;;;5.18;;
18100;SDS011;9177;49.156;8.142;2023-08-12T13:53:23;23.65;;;5.80;;
18100;SDS011;9177;49.156;8.142;2023-08-12T13:55:51;16.65;;;4.93;;
18100;SDS011;9177;49.156;8.142;2023-08-12T13:58:18;19.20;;;6.35;;
18100;SDS011;9177;49.156;8.142;2023-08-12T14:00:45;18.67;;;6.85;;
18100;SDS011;9177;49.156;8.142;2023-08-12T14:03:12;22.48;;;6.25;;
18100;SDS011;9177;49.156;8.142;2023-08-12T14:05:40;32.45;;;6.70;;
18100;SDS011;9177;49.156;8.142;2023-08-12T14:08:09;18.17;;;6.03;;
18100;SDS011;9177;49.156;8.142;2023-08-12T14:10:36;17.63;;;5.88;;
18100;SDS011;9177;49.156;8.142;2023-08-12T14:13:03;22.48;;;6.93;;
18100;SDS011;9177;49.156;8.142;2023-08-12T14:15:31;20.23;;;7.03;;
18100;SDS011;9177;49.156;8.142;2023-08-12T14:17:59;25.92;;;6.93;;
18100;SDS011;9177;49.156;8.142;2023-08-12T14:20:26;18.17;;;5.45;;
18100;SDS011;9177;49.156;8.142;2023-08-12T14:22:53;14.15;;;5.93;;
18100;SDS011;9177;49.156;8.142;2023-08-12T14:25:22;15.68;;;5.53;;
18100;SDS011;9177;49.156;8.142;2023-08-12T14:27:49;25.80;;;5.70;;
18100;SDS011;9177;49.156;8.142;2023-08-12T14:30:19;14.45;;;5.47;;
18100;SDS011;9177;49.156;8.142;2023-08-12T14:32:50;16.30;;;5.53;;
18100;SDS011;9177;49.156;8.142;2023-08-12T14:35:18;17.30;;;5.78;;
18100;SDS011;9177;49.156;8.142;2023-08-12T14:37:45;17.02;;;5.78;;
18100;SDS011;9177;49.156;8.142;2023-08-12T14:40:12;21.65;;;5.75;;
18100;SDS011;9177;49.156;8.142;2023-08-12T14:42:40;25.25;;;5.65;;
18100;SDS011;9177;49.156;8.142;2023-08-12T14:45:08;13.85;;;5.93;;
18100;SDS011;9177;49.156;8.142;2023-08-12T14:47:35;10.52;;;5.10;;
18100;SDS011;9177;49.156;8.142;2023-08-12T14:50:03;8.13;;;4.70;;
18100;SDS011;9177;49.156;8.142;2023-08-12T14:52:30;10.43;;;4.07;;
18100;SDS011;9177;49.156;8.142;2023-08-12T14:54:58;5.75;;;3.85;;
18100;SDS011;9177;49.156;8.142;2023-08-12T14:57:25;8.05;;;3.67;;
18100;SDS011;9177;49.156;8.142;2023-08-12T14:59:53;7.90;;;3.38;;
18100;SDS011;9177;49.156;8.142;2023-08-12T15:02:21;9.35;;;3.67;;
18100;SDS011;9177;49.156;8.142;2023-08-12T15:04:48;8.95;;;3.83;;